METAR AND TAF INFORMATION
METAR FOR YPXM
YPXM 260430Z AUTO 17004KT 9999 // SCT017 OVC022 28/24 Q1012
YPXM 260400Z AUTO 17005KT 150V210 9999 // SCT016 BKN027 OVC036 28/24 Q1012
YPXM 260330Z AUTO 14006KT 110V170 9999 // SCT016 29/24 Q1012
YPXM 260300Z AUTO 15006KT 9999 // NCD 29/24 Q1012 RF00.0/000.0
YPXM 260230Z AUTO 15005KT 100V170 9999 // NCD 29/23 Q1012 RF00.0/000.0
YPXM 260200Z AUTO 15005KT 9999 // SCT019 SCT034 29/23 Q1013
YPXM 260130Z AUTO 18003KT 9999 // NCD 28/23 Q1013 RF00.0/001.4

TAF AMD YPXM 252317Z 2600/2700 14008KT 9999 SCT012 BKN016 INTER 2603/2700 3000 SHRA BKN010

 AIRPORT MAP

 RUNWAY INFORMATION
Runway 18 Runway length 6900 ft Runway width 148 ft
Runway elevation 916 ft Runway displaced threshold 0 ft Runway heading 175
Runway 36 Runway length 6900 ft Runway width 148 ft
Runway elevation 810 ft Runway displaced threshold 0 ft Runway heading 355

 AIRPORT FREQUENCIES
Type CTAF Name CTAF Frequency 122.8 MHZ
Type FSS Name RDO Frequency 347 MHZ

 AIRPORT NEAR NAVIGATION AIDS
Type VOR-DME Name Christmas Island Frequency 112400 KHZ

-